Time;durP1;ratioP1;P1;durP2;ratioP2;P2;SDS_P1;SDS_P2;PMS_P1;PMS_P2;Temp;Humidity;BMP_temperature;BMP_pressure;BME280_temperature;BME280_humidity;BME280_pressure;Samples;Min_cycle;Max_cycle;Signal;HPM_P1;HPM_P2
2023/03/19 00:02:13;;;;;;;295.08;112.60;;;3.30;99.90;;;;;;5078133;28;20036;-78
2023/03/19 00:04:39;;;;;;;234.85;98.60;;;3.20;99.90;;;;;;5077884;28;20131;-78
2023/03/19 00:07:05;;;;;;;259.55;107.90;;;3.10;99.90;;;;;;5077935;28;20052;-78
2023/03/19 00:09:31;;;;;;;268.30;109.30;;;3.00;99.90;;;;;;5077922;28;20111;-77
2023/03/19 00:11:57;;;;;;;274.88;112.43;;;3.10;99.90;;;;;;5077718;28;20390;-77
2023/03/19 00:14:23;;;;;;;276.52;114.43;;;3.10;99.90;;;;;;5077956;28;20025;-77
2023/03/19 00:16:50;;;;;;;265.58;109.07;;;3.10;99.90;;;;;;5077798;28;20020;-77
2023/03/19 00:19:16;;;;;;;294.98;119.78;;;3.00;99.90;;;;;;5077670;28;20074;-77
2023/03/19 00:21:42;;;;;;;269.42;111.25;;;3.00;99.90;;;;;;5077648;28;20033;-77
2023/03/19 00:24:09;;;;;;;230.00;100.65;;;3.00;99.90;;;;;;5077669;28;20024;-78
2023/03/19 00:26:35;;;;;;;191.05;88.40;;;2.90;99.90;;;;;;5077551;28;20037;-77
2023/03/19 00:29:02;;;;;;;189.60;88.30;;;2.80;99.90;;;;;;5077465;28;20052;-77
2023/03/19 00:31:29;;;;;;;185.20;86.25;;;2.80;99.90;;;;;;5059512;28;20033;-77
2023/03/19 00:33:59;;;;;;;176.88;84.28;;;2.80;99.90;;;;;;5059302;28;20025;-77
2023/03/19 00:36:27;;;;;;;176.45;82.88;;;2.60;99.90;;;;;;5097708;28;20060;-77
2023/03/19 00:38:53;;;;;;;202.48;88.53;;;2.70;99.90;;;;;;5079389;28;20552;-77
2023/03/19 00:41:20;;;;;;;194.18;88.25;;;2.60;99.90;;;;;;5097687;28;20020;-77
2023/03/19 00:43:51;;;;;;;177.07;82.65;;;2.70;99.90;;;;;;5097424;28;20071;-77
2023/03/19 00:46:16;;;;;;;178.52;80.80;;;2.80;99.90;;;;;;5097575;28;20036;-78
2023/03/19 00:48:42;;;;;;;192.90;81.97;;;2.70;99.90;;;;;;5097334;28;20043;-77
2023/03/19 00:51:09;;;;;;;309.48;124.30;;;2.80;99.90;;;;;;5079206;28;20032;-77
2023/03/19 00:53:41;;;;;;;336.58;130.18;;;2.80;99.90;;;;;;5078372;28;20024;-77
2023/03/19 00:56:08;;;;;;;299.58;117.88;;;2.80;99.90;;;;;;5096889;28;20035;-77
2023/03/19 00:58:37;;;;;;;298.85;115.28;;;2.70;99.90;;;;;;5079097;28;20027;-77
2023/03/19 01:01:04;;;;;;;247.65;104.47;;;2.70;99.90;;;;;;5079171;28;20162;-77
2023/03/19 01:03:30;;;;;;;234.10;101.60;;;2.70;99.90;;;;;;5079092;28;20124;-77
2023/03/19 01:05:59;;;;;;;204.85;90.20;;;2.60;99.90;;;;;;5079044;28;20097;-77
2023/03/19 01:08:26;;;;;;;204.15;90.47;;;2.60;99.90;;;;;;5096865;28;20054;-78
2023/03/19 01:10:52;;;;;;;194.40;83.07;;;2.40;99.90;;;;;;5078752;28;20389;-78
2023/03/19 01:13:18;;;;;;;198.68;84.90;;;2.40;99.90;;;;;;5078878;28;20062;-77
2023/03/19 01:15:45;;;;;;;156.15;67.43;;;2.30;99.90;;;;;;5078636;28;20031;-77
2023/03/19 01:18:11;;;;;;;149.10;66.90;;;2.30;99.90;;;;;;5078618;28;20059;-77
2023/03/19 01:20:40;;;;;;;145.85;66.15;;;2.30;99.90;;;;;;5078727;28;20027;-77
2023/03/19 01:23:07;;;;;;;157.45;71.10;;;2.40;99.90;;;;;;5078478;28;20032;-78
2023/03/19 01:25:34;;;;;;;176.55;74.82;;;2.50;99.90;;;;;;5096639;28;20055;-77
2023/03/19 01:28:02;;;;;;;171.55;74.28;;;2.60;99.90;;;;;;5096734;28;20394;-77
2023/03/19 01:30:28;;;;;;;242.00;104.18;;;2.50;99.90;;;;;;5096461;28;20032;-77
2023/03/19 01:33:12;;;;;;;226.50;97.55;;;2.40;99.90;;;;;;5078257;28;20105;-78
2023/03/19 01:35:56;;;;;;;135.27;62.88;;;2.40;99.90;;;;;;5077553;28;20043;-77
2023/03/19 01:38:26;;;;;;;;;;;2.20;99.90;;;;;;5058669;28;20035;-77
2023/03/19 01:40:56;;;;;;;175.93;76.57;;;2.20;99.90;;;;;;5058228;28;20354;-77
2023/03/19 01:43:25;;;;;;;147.57;69.97;;;2.20;99.90;;;;;;5058081;28;20100;-77
2023/03/19 01:46:25;;;;;;;144.82;66.45;;;2.10;99.90;;;;;;5076173;28;20081;-77
2023/03/19 01:49:11;;;;;;;127.15;58.80;;;2.10;99.90;;;;;;5076094;28;20116;-78
2023/03/19 01:51:41;;;;;;;151.30;65.88;;;2.30;99.90;;;;;;5058205;28;20028;-78
2023/03/19 01:54:28;;;;;;;148.18;66.60;;;2.40;99.90;;;;;;5075819;28;20055;-78
2023/03/19 01:57:14;;;;;;;156.25;71.15;;;2.60;99.90;;;;;;5057943;28;20052;-78
2023/03/19 02:00:02;;;;;;;143.02;66.72;;;2.60;99.90;;;;;;5075865;28;20044;-78
2023/03/19 02:02:48;;;;;;;139.18;63.78;;;2.60;99.90;;;;;;5075978;28;20048;-78
2023/03/19 02:05:45;;;;;;;179.40;79.10;;;2.70;99.90;;;;;;5067025;28;20464;-78
2023/03/19 02:08:15;;;;;;;175.15;79.60;;;2.80;99.90;;;;;;5057546;28;20445;-78
2023/03/19 02:10:43;;;;;;;152.48;70.53;;;2.80;99.90;;;;;;5057682;28;20056;-77
2023/03/19 02:13:10;;;;;;;149.07;65.88;;;2.70;99.90;;;;;;5057472;28;20394;-78
2023/03/19 02:15:36;;;;;;;129.05;61.05;;;2.60;99.90;;;;;;5075616;28;20377;-78
2023/03/19 02:18:03;;;;;;;141.35;60.22;;;2.50;99.90;;;;;;5057605;28;20024;-78
2023/03/19 02:20:31;;;;;;;140.18;63.78;;;2.50;99.90;;;;;;5057367;28;20025;-78
2023/03/19 02:23:08;;;;;;;151.23;68.72;;;2.30;99.90;;;;;;5057481;28;20071;-78
2023/03/19 02:25:47;;;;;;;133.70;62.13;;;2.20;99.90;;;;;;5091026;28;20111;-78
2023/03/19 02:28:18;;;;;;;136.43;63.22;;;2.30;99.90;;;;;;5075267;28;20089;-77
2023/03/19 02:30:45;;;;;;;137.38;62.65;;;2.20;99.90;;;;;;5057081;28;20025;-78
2023/03/19 02:33:17;;;;;;;125.75;59.13;;;2.30;99.90;;;;;;5057094;28;20036;-78
2023/03/19 02:35:46;;;;;;;117.72;54.13;;;2.40;99.90;;;;;;5091855;28;20055;-78
2023/03/19 02:38:14;;;;;;;;;;;2.50;99.90;;;;;;5077638;28;20044;-78
2023/03/19 02:40:52;;;;;;;109.72;50.08;;;2.40;99.90;;;;;;5077015;28;19915;-77
2023/03/19 02:43:20;;;;;;;109.82;52.15;;;2.40;99.90;;;;;;5095181;28;20028;-80
2023/03/19 02:45:46;;;;;;;101.40;51.30;;;2.40;99.90;;;;;;5110989;28;20036;-80
2023/03/19 02:48:12;;;;;;;136.43;62.55;;;2.20;99.90;;;;;;5095180;28;20035;-80
2023/03/19 02:50:37;;;;;;;137.27;62.63;;;2.20;99.90;;;;;;5095032;28;20083;-80
2023/03/19 02:53:03;;;;;;;122.00;58.92;;;2.30;99.90;;;;;;5095112;28;20377;-80
2023/03/19 02:55:29;;;;;;;126.28;57.58;;;2.30;99.90;;;;;;5094984;28;20020;-80
2023/03/19 02:57:55;;;;;;;125.80;57.20;;;2.30;99.90;;;;;;5094957;28;20032;-81
2023/03/19 03:00:21;;;;;;;127.40;60.28;;;2.10;99.90;;;;;;5094876;28;20038;-80
2023/03/19 03:02:47;;;;;;;129.13;61.05;;;2.10;99.90;;;;;;5076769;28;20036;-80
2023/03/19 03:05:13;;;;;;;121.72;58.00;;;2.30;99.90;;;;;;5076673;28;20070;-80
2023/03/19 03:07:42;;;;;;;140.13;64.07;;;2.20;99.90;;;;;;5094747;28;20024;-78
2023/03/19 03:10:08;;;;;;;132.15;63.08;;;2.10;99.90;;;;;;5094732;28;20116;-78
2023/03/19 03:12:34;;;;;;;136.48;62.80;;;2.00;99.90;;;;;;5094692;28;20055;-78
2023/03/19 03:15:01;;;;;;;123.28;60.25;;;2.00;99.90;;;;;;5094753;28;20067;-78
2023/03/19 03:17:27;;;;;;;140.68;65.22;;;1.80;99.90;;;;;;5094037;28;20035;-78
2023/03/19 03:19:53;;;;;;;127.85;60.00;;;1.80;99.90;;;;;;5076358;28;20055;-78
2023/03/19 03:22:19;;;;;;;138.90;61.80;;;1.70;99.90;;;;;;5094597;28;20032;-78
2023/03/19 03:24:45;;;;;;;137.00;61.20;;;1.70;99.90;;;;;;5094666;28;20059;-78
2023/03/19 03:27:11;;;;;;;136.82;60.65;;;1.60;99.90;;;;;;5094500;28;20020;-78
2023/03/19 03:29:37;;;;;;;122.93;60.10;;;1.70;99.90;;;;;;5076634;28;20051;-78
2023/03/19 03:32:03;;;;;;;117.05;54.88;;;1.70;99.90;;;;;;5094441;28;20115;-78
2023/03/19 03:34:29;;;;;;;117.65;53.63;;;1.70;99.90;;;;;;5087821;28;20036;-78
2023/03/19 03:36:55;;;;;;;94.65;46.35;;;1.70;99.90;;;;;;5056318;28;20139;-78
2023/03/19 03:39:21;;;;;;;93.82;45.97;;;1.70;99.90;;;;;;5074265;28;20107;-78
2023/03/19 03:41:47;;;;;;;91.70;47.78;;;1.70;99.90;;;;;;5056336;28;20025;-78
2023/03/19 03:44:14;;;;;;;93.32;47.47;;;1.70;99.90;;;;;;5056215;28;20034;-78
2023/03/19 03:46:42;;;;;;;123.63;58.67;;;1.70;99.90;;;;;;5056211;28;20510;-78
2023/03/19 03:49:08;;;;;;;118.80;57.33;;;1.60;99.90;;;;;;5056194;28;20060;-78
2023/03/19 03:51:35;;;;;;;99.63;49.40;;;1.60;99.90;;;;;;5074091;28;20028;-78
2023/03/19 03:54:02;;;;;;;99.53;47.90;;;1.50;99.90;;;;;;5056071;28;20028;-78
2023/03/19 03:56:29;;;;;;;103.82;49.42;;;1.50;99.90;;;;;;5056133;28;20052;-78
2023/03/19 03:58:55;;;;;;;103.50;50.95;;;1.50;99.90;;;;;;5056175;28;20107;-78
2023/03/19 04:01:21;;;;;;;106.88;49.42;;;1.40;99.90;;;;;;5056044;28;20044;-78
2023/03/19 04:03:53;;;;;;;86.32;45.25;;;1.40;99.90;;;;;;5056028;28;20048;-78
2023/03/19 04:06:21;;;;;;;87.85;42.67;;;1.40;99.90;;;;;;5055839;28;20037;-78
2023/03/19 04:08:56;;;;;;;87.88;44.60;;;1.30;99.90;;;;;;5055962;28;20257;-77
2023/03/19 04:11:22;;;;;;;87.38;46.72;;;1.30;99.90;;;;;;5056072;28;20059;-78
2023/03/19 04:13:48;;;;;;;91.28;45.17;;;1.40;99.90;;;;;;5055937;28;20512;-78
2023/03/19 04:16:14;;;;;;;91.28;44.95;;;1.50;99.90;;;;;;5055772;28;20029;-78
2023/03/19 04:18:40;;;;;;;93.50;45.33;;;1.50;99.90;;;;;;5073816;28;20020;-78
2023/03/19 04:21:07;;;;;;;89.85;46.80;;;1.60;99.90;;;;;;5055721;28;20466;-78
2023/03/19 04:23:34;;;;;;;87.75;43.10;;;1.70;99.90;;;;;;5055803;28;20590;-78
2023/03/19 04:26:02;;;;;;;88.40;44.42;;;1.70;99.90;;;;;;5055956;28;20054;-78
2023/03/19 04:28:29;;;;;;;91.10;45.45;;;1.70;99.90;;;;;;5056642;28;20029;-78
2023/03/19 04:31:00;;;;;;;81.82;41.72;;;1.60;99.90;;;;;;5077433;28;20032;-78
2023/03/19 04:33:28;;;;;;;81.60;40.88;;;1.50;99.90;;;;;;5059406;28;20440;-78
2023/03/19 04:35:56;;;;;;;94.65;41.10;;;1.60;99.90;;;;;;5059200;28;20047;-78
2023/03/19 04:38:25;;;;;;;76.53;40.47;;;1.60;99.90;;;;;;5059400;28;20033;-78
2023/03/19 04:40:52;;;;;;;89.78;44.42;;;1.60;99.90;;;;;;5075982;28;20439;-78
2023/03/19 04:43:18;;;;;;;88.38;43.47;;;1.70;99.90;;;;;;5059489;28;20486;-78
2023/03/19 04:45:44;;;;;;;84.78;43.20;;;1.80;99.90;;;;;;5059313;28;20035;-78
2023/03/19 04:48:11;;;;;;;97.03;44.03;;;1.90;99.90;;;;;;5059160;28;20025;-78
2023/03/19 04:50:39;;;;;;;94.72;43.70;;;2.00;99.90;;;;;;5059031;28;20040;-78
2023/03/19 04:53:05;;;;;;;94.32;45.53;;;2.00;99.90;;;;;;5059016;28;20029;-78
2023/03/19 04:55:31;;;;;;;98.10;44.92;;;2.00;99.90;;;;;;5059095;28;20039;-78
2023/03/19 04:58:05;;;;;;;96.60;44.53;;;2.00;99.90;;;;;;5058919;28;20029;-78
2023/03/19 05:00:34;;;;;;;94.90;45.55;;;1.90;99.90;;;;;;5058965;28;20032;-78
2023/03/19 05:03:01;;;;;;;92.68;44.00;;;1.80;99.90;;;;;;5076897;28;20031;-78
2023/03/19 05:05:29;;;;;;;86.88;42.63;;;1.90;99.90;;;;;;5058905;28;20059;-78
2023/03/19 05:07:56;;;;;;;88.47;42.17;;;1.90;99.90;;;;;;5058745;28;20032;-78
2023/03/19 05:10:23;;;;;;;80.28;41.22;;;2.00;99.90;;;;;;5058955;28;20124;-78
2023/03/19 05:12:50;;;;;;;90.53;43.28;;;2.10;99.90;;;;;;5058660;28;20479;-78
2023/03/19 05:15:16;;;;;;;90.20;43.15;;;2.20;99.90;;;;;;5058677;28;20120;-78
2023/03/19 05:17:52;;;;;;;86.90;42.80;;;2.60;99.90;;;;;;5058696;28;20431;-78
2023/03/19 05:20:20;;;;;;;79.35;41.13;;;3.20;99.90;;;;;;5058485;28;20031;-78
2023/03/19 05:22:53;;;;;;;81.53;40.75;;;3.60;99.90;;;;;;5058524;28;20059;-78
2023/03/19 05:25:21;;;;;;;86.35;41.38;;;4.00;99.90;;;;;;5058491;28;20055;-78
2023/03/19 05:27:47;;;;;;;82.78;39.85;;;4.20;99.90;;;;;;5058320;28;20055;-78
2023/03/19 05:30:19;;;;;;;87.43;39.38;;;4.50;99.90;;;;;;5058313;28;20096;-79
2023/03/19 05:33:11;;;;;;;70.82;37.80;;;4.70;99.90;;;;;;5066288;28;20033;-78
2023/03/19 05:35:40;;;;;;;73.07;36.75;;;5.10;99.90;;;;;;5058090;28;20491;-79
2023/03/19 05:38:15;;;;;;;70.13;35.60;;;5.30;99.90;;;;;;5058111;28;20025;-78
2023/03/19 05:40:44;;;;;;;68.43;34.13;;;5.30;99.90;;;;;;5057679;28;20036;-79
2023/03/19 05:43:29;;;;;;;79.68;41.00;;;5.30;99.90;;;;;;5058403;28;20059;-79
2023/03/19 05:45:56;;;;;;;83.82;43.20;;;5.30;99.90;;;;;;5058300;28;20036;-78
2023/03/19 05:48:26;;;;;;;86.10;42.42;;;5.40;99.90;;;;;;5058204;28;20494;-79
2023/03/19 05:50:53;;;;;;;82.68;42.08;;;5.40;99.90;;;;;;5057979;28;20036;-78
2023/03/19 05:53:21;;;;;;;88.95;42.83;;;5.20;99.90;;;;;;5075807;28;20040;-78
2023/03/19 05:56:06;;;;;;;86.75;42.72;;;5.30;99.90;;;;;;5075825;28;20031;-78
2023/03/19 05:58:42;;;;;;;101.38;42.25;;;5.30;99.90;;;;;;5057781;28;20379;-78
2023/03/19 06:01:09;;;;;;;85.50;41.47;;;5.50;99.90;;;;;;5075829;28;20025;-78
2023/03/19 06:03:35;;;;;;;84.47;40.90;;;5.70;99.90;;;;;;5057758;28;20043;-78
2023/03/19 06:06:06;;;;;;;90.25;42.40;;;5.90;99.90;;;;;;5057910;28;20050;-78
2023/03/19 06:08:37;;;;;;;85.50;42.75;;;5.90;99.90;;;;;;5075661;28;20040;-79
2023/03/19 06:11:13;;;;;;;84.85;44.60;;;6.20;99.90;;;;;;5057846;28;20155;-78
2023/03/19 06:13:42;;;;;;;83.28;41.80;;;6.60;99.90;;;;;;5057406;28;20032;-78
2023/03/19 06:16:11;;;;;;;82.68;41.72;;;6.80;99.90;;;;;;5057649;28;20025;-77
2023/03/19 06:18:41;;;;;;;76.85;40.60;;;7.00;99.90;;;;;;5057352;28;20424;-78
2023/03/19 06:21:10;;;;;;;80.38;40.42;;;7.00;99.90;;;;;;5075333;28;20082;-78
2023/03/19 06:23:36;;;;;;;83.80;41.72;;;7.30;99.90;;;;;;5057584;28;20060;-78
2023/03/19 06:26:04;;;;;;;83.30;42.65;;;7.20;99.90;;;;;;5057631;28;20030;-78
2023/03/19 06:28:35;;;;;;;85.07;43.42;;;7.70;99.90;;;;;;5057391;28;20050;-78
2023/03/19 06:31:02;;;;;;;87.80;45.42;;;8.00;99.90;;;;;;5057323;28;20056;-78
2023/03/19 06:33:49;;;;;;;81.25;42.53;;;8.20;99.90;;;;;;5064818;28;20040;-78
2023/03/19 06:36:16;;;;;;;77.20;41.70;;;8.40;99.90;;;;;;5073946;28;20139;-78
2023/03/19 06:38:42;;;;;;;79.22;41.22;;;8.60;99.90;;;;;;5090635;28;20028;-78
2023/03/19 06:41:08;;;;;;;71.72;38.88;;;8.80;99.90;;;;;;5075120;28;20029;-78
2023/03/19 06:43:40;;;;;;;84.53;39.17;;;8.80;99.90;;;;;;5074938;28;20162;-79
2023/03/19 06:46:07;;;;;;;77.30;40.03;;;9.10;99.90;;;;;;5074824;28;20024;-79
2023/03/19 06:48:34;;;;;;;75.70;40.47;;;9.60;99.90;;;;;;5074866;28;20523;-79
2023/03/19 06:51:00;;;;;;;80.47;42.70;;;9.70;99.90;;;;;;5074950;28;20108;-79
2023/03/19 06:53:27;;;;;;;75.55;39.83;;;10.20;99.90;;;;;;5074726;28;20411;-79
2023/03/19 06:55:53;;;;;;;92.85;44.20;;;10.30;99.90;;;;;;5074636;28;20028;-79
2023/03/19 06:58:19;;;;;;;71.20;39.63;;;10.60;99.90;;;;;;5074738;28;20501;-79
2023/03/19 07:00:46;;;;;;;65.72;36.90;;;10.60;99.90;;;;;;5074617;28;20390;-78
2023/03/19 07:03:11;;;;;;;66.03;35.97;;;10.90;99.90;;;;;;5056938;28;20028;-79
2023/03/19 07:05:37;;;;;;;70.18;37.10;;;11.00;99.90;;;;;;5074978;28;20367;-79
2023/03/19 07:08:10;;;;;;;68.88;38.33;;;11.10;99.90;;;;;;5074493;28;20056;-79
2023/03/19 07:10:37;;;;;;;73.20;41.10;;;11.30;99.90;;;;;;5074604;28;20024;-79
2023/03/19 07:13:03;;;;;;;70.18;40.10;;;11.30;99.90;;;;;;5074575;28;20024;-79
2023/03/19 07:15:29;;;;;;;68.60;38.90;;;11.50;99.90;;;;;;5074445;28;20032;-79
2023/03/19 07:17:56;;;;;;;68.65;39.90;;;11.70;99.90;;;;;;5056515;28;20124;-79
2023/03/19 07:20:22;;;;;;;72.63;42.78;;;12.00;99.90;;;;;;5074342;28;20035;-78
2023/03/19 07:22:51;;;;;;;73.28;41.88;;;12.30;99.90;;;;;;5074511;28;20042;-79
2023/03/19 07:25:17;;;;;;;69.28;40.72;;;12.50;99.90;;;;;;5074492;28;20036;-79
2023/03/19 07:27:44;;;;;;;69.88;38.75;;;12.90;99.90;;;;;;5074282;28;20032;-79
2023/03/19 07:30:11;;;;;;;72.43;38.08;;;13.30;99.90;;;;;;5074214;28;20033;-78
2023/03/19 07:32:37;;;;;;;64.38;36.42;;;13.70;99.90;;;;;;5074337;28;20033;-78
2023/03/19 07:35:07;;;;;;;59.63;33.95;;;14.00;99.90;;;;;;5062730;28;20056;-78
2023/03/19 07:37:33;;;;;;;58.17;33.10;;;14.00;99.90;;;;;;5054355;28;20112;-79
2023/03/19 07:39:59;;;;;;;50.20;29.73;;;14.30;99.90;;;;;;5054303;28;20311;-79
2023/03/19 07:42:25;;;;;;;50.70;28.50;;;14.30;99.90;;;;;;5054122;28;20057;-80
2023/03/19 07:44:51;;;;;;;52.88;29.10;;;14.20;99.90;;;;;;5054252;28;20025;-80
2023/03/19 07:47:17;;;;;;;54.67;30.67;;;14.20;99.90;;;;;;5054055;28;20025;-80
2023/03/19 07:49:43;;;;;;;52.55;29.77;;;14.60;99.90;;;;;;5054164;28;20029;-80
2023/03/19 07:52:09;;;;;;;47.03;26.88;;;14.70;99.90;;;;;;5054036;28;20033;-80
2023/03/19 07:54:35;;;;;;;42.33;24.60;;;15.10;99.90;;;;;;5053948;28;20053;-79
2023/03/19 07:57:01;;;;;;;43.72;24.58;;;15.30;99.90;;;;;;5054124;28;20021;-79
2023/03/19 07:59:27;;;;;;;45.00;25.13;;;15.80;99.90;;;;;;5054005;28;20450;-79
2023/03/19 08:01:53;;;;;;;40.17;24.15;;;15.80;99.90;;;;;;5053934;28;20057;-80
2023/03/19 08:04:19;;;;;;;39.72;22.00;;;15.80;99.90;;;;;;5056248;28;20060;-80
2023/03/19 08:06:45;;;;;;;46.22;24.58;;;15.90;99.90;;;;;;5057901;28;20033;-79
2023/03/19 08:09:10;;;;;;;38.67;22.33;;;16.10;99.90;;;;;;5057797;28;20021;-79
2023/03/19 08:11:36;;;;;;;40.47;24.17;;;16.20;99.90;;;;;;5057609;28;20462;-79
2023/03/19 08:14:03;;;;;;;47.72;25.73;;;16.50;99.90;;;;;;5057883;28;20099;-79
2023/03/19 08:16:29;;;;;;;48.88;27.92;;;16.90;99.90;;;;;;5057822;28;20029;-79
2023/03/19 08:18:55;;;;;;;45.72;26.65;;;16.90;99.90;;;;;;5057691;28;20021;-79
2023/03/19 08:21:21;;;;;;;42.88;25.02;;;17.00;99.90;;;;;;5057751;28;20029;-79
2023/03/19 08:23:47;;;;;;;50.47;25.90;;;17.10;99.90;;;;;;5057787;28;20090;-79
2023/03/19 08:26:13;;;;;;;47.60;26.90;;;17.30;99.90;;;;;;5057673;28;20448;-79
2023/03/19 08:28:39;;;;;;;46.20;27.17;;;17.50;99.90;;;;;;5057646;28;20037;-79
2023/03/19 08:31:11;;;;;;;48.83;25.27;;;17.60;99.90;;;;;;5057396;28;20021;-79
2023/03/19 08:33:37;;;;;;;38.63;23.35;;;17.70;99.90;;;;;;5057450;28;20471;-79
2023/03/19 08:36:09;;;;;;;52.30;23.70;;;17.90;99.90;;;;;;5094906;28;20219;-79
2023/03/19 08:38:35;;;;;;;37.35;21.25;;;18.10;99.90;;;;;;5097738;28;20107;-79
2023/03/19 08:41:03;;;;;;;40.25;21.58;;;18.60;99.90;;;;;;5097727;28;20063;-79
2023/03/19 08:43:30;;;;;;;39.50;22.48;;;19.10;99.90;;;;;;5097582;28;20358;-79
2023/03/19 08:45:56;;;;;;;38.75;21.13;;;19.40;99.90;;;;;;5097801;28;20073;-79
2023/03/19 08:48:22;;;;;;;37.88;21.23;;;18.80;99.90;;;;;;5097785;28;20024;-79
2023/03/19 08:51:00;;;;;;;35.38;19.90;;;19.20;99.90;;;;;;5097600;28;20063;-79
2023/03/19 08:53:27;;;;;;;31.23;18.42;;;19.60;99.90;;;;;;5097404;28;20055;-79
2023/03/19 08:55:55;;;;;;;29.52;16.83;;;20.30;99.90;;;;;;5097432;28;20028;-79
2023/03/19 08:58:21;;;;;;;32.33;17.60;;;20.80;99.90;;;;;;5096992;28;20074;-79
2023/03/19 09:00:48;;;;;;;30.90;17.67;;;21.20;99.90;;;;;;5097175;28;20020;-79
2023/03/19 09:03:15;;;;;;;25.85;16.38;;;21.30;99.90;;;;;;5097344;28;20055;-79
2023/03/19 09:05:42;;;;;;;25.20;16.33;;;21.60;99.90;;;;;;5097193;28;20032;-78
2023/03/19 09:08:08;;;;;;;28.33;16.55;;;22.00;99.90;;;;;;5097023;28;20297;-79
2023/03/19 09:10:34;;;;;;;24.35;14.88;;;22.50;99.90;;;;;;5097238;28;20107;-79
2023/03/19 09:13:00;;;;;;;25.77;14.85;;;22.90;99.90;;;;;;5096997;28;20087;-78
2023/03/19 09:15:27;;;;;;;29.33;14.45;;;21.60;99.90;;;;;;5095863;28;20020;-79
2023/03/19 09:17:53;;;;;;;24.27;14.05;;;21.70;99.90;;;;;;5097065;28;20028;-79
2023/03/19 09:20:19;;;;;;;25.92;14.18;;;22.10;99.90;;;;;;5096874;28;20020;-78
2023/03/19 09:22:45;;;;;;;20.38;11.82;;;22.70;99.90;;;;;;5096961;28;20032;-79
2023/03/19 09:25:11;;;;;;;20.27;12.02;;;23.00;99.90;;;;;;5096713;28;20093;-78
2023/03/19 09:27:37;;;;;;;19.98;12.13;;;23.20;99.90;;;;;;5096747;28;20464;-78
2023/03/19 09:30:04;;;;;;;22.10;11.15;;;23.70;99.90;;;;;;5096879;28;20059;-79
2023/03/19 09:32:30;;;;;;;28.13;12.38;;;24.10;99.90;;;;;;5096560;28;20484;-79
2023/03/19 09:34:56;;;;;;;18.30;10.25;;;23.60;99.90;;;;;;5086189;28;20127;-79
2023/03/19 09:37:22;;;;;;;20.45;10.93;;;23.70;99.90;;;;;;5076275;28;20050;-78
2023/03/19 09:39:48;;;;;;;17.83;11.38;;;24.20;99.90;;;;;;5076456;28;20100;-79
2023/03/19 09:42:50;;;;;;;24.02;11.25;;;24.20;99.90;;;;;;5076274;28;20067;-78
2023/03/19 09:45:18;;;;;;;18.95;11.05;;;24.70;99.90;;;;;;5076367;28;20028;-79
2023/03/19 09:47:48;;;;;;;22.02;11.88;;;25.00;99.90;;;;;;5076295;28;20016;-79
2023/03/19 09:50:19;;;;;;;18.60;11.27;;;25.20;99.90;;;;;;5076171;28;20047;-79
2023/03/19 09:52:57;;;;;;;16.90;11.07;;;23.90;99.90;;;;;;5076015;28;20494;-79
2023/03/19 09:55:30;;;;;;;16.55;10.90;;;23.50;99.90;;;;;;5075862;28;20127;-79
2023/03/19 09:57:57;;;;;;;18.15;10.75;;;24.00;99.90;;;;;;5075972;28;20028;-79
2023/03/19 10:00:35;;;;;;;17.15;11.63;;;24.10;99.90;;;;;;5075971;28;20025;-78
2023/03/19 10:03:14;;;;;;;19.75;10.68;;;24.80;99.90;;;;;;5075778;28;20553;-78
2023/03/19 10:05:58;;;;;;;20.15;10.55;;;25.20;99.90;;;;;;5075718;28;20501;-78
2023/03/19 10:08:35;;;;;;;15.15;9.50;;;25.40;99.90;;;;;;5075553;28;20036;-78
2023/03/19 10:11:11;;;;;;;16.00;9.88;;;25.20;99.90;;;;;;5075728;28;20055;-78
2023/03/19 10:14:13;;;;;;;13.40;9.50;;;25.10;99.90;;;;;;5075632;28;20047;-79
2023/03/19 10:16:42;;;;;;;14.48;9.48;;;25.50;99.90;;;;;;5075518;28;20024;-79
2023/03/19 10:19:12;;;;;;;17.15;9.80;;;25.40;99.90;;;;;;5075403;28;20028;-79
2023/03/19 10:21:46;;;;;;;16.33;9.82;;;24.20;99.90;;;;;;5075380;28;20028;-79
2023/03/19 10:24:26;;;;;;;16.95;10.25;;;23.40;99.90;;;;;;5075407;28;20045;-79
2023/03/19 10:27:08;;;;;;;17.13;10.73;;;23.40;99.90;;;;;;5075028;28;20062;-79
2023/03/19 10:29:34;;;;;;;15.52;10.60;;;23.70;99.90;;;;;;5075410;28;20056;-79
2023/03/19 10:32:07;;;;;;;14.05;9.52;;;24.00;99.90;;;;;;5075182;28;20066;-79
2023/03/19 10:34:35;;;;;;;16.73;9.45;;;24.40;99.90;;;;;;5081875;28;20042;-79
2023/03/19 10:37:06;;;;;;;16.15;8.73;;;24.50;99.90;;;;;;5095600;28;20027;-80
2023/03/19 10:39:35;;;;;;;17.17;9.00;;;25.20;99.90;;;;;;5095417;28;20038;-79
2023/03/19 10:42:31;;;;;;;17.25;9.82;;;25.50;99.90;;;;;;5095434;28;20031;-79
2023/03/19 10:45:28;;;;;;;13.57;8.80;;;26.10;99.90;;;;;;5095442;28;20689;-79
2023/03/19 10:47:56;;;;;;;16.67;9.20;;;26.50;99.90;;;;;;5095165;28;20574;-79
2023/03/19 10:50:46;;;;;;;15.02;8.95;;;26.60;99.90;;;;;;5095311;28;20028;-78
2023/03/19 10:53:12;;;;;;;13.50;8.88;;;26.20;99.90;;;;;;5094996;28;20450;-79
2023/03/19 10:55:54;;;;;;;18.80;10.38;;;26.40;99.90;;;;;;5095039;28;20032;-79
2023/03/19 10:58:24;;;;;;;16.17;8.43;;;25.90;99.90;;;;;;5095049;28;20048;-78
2023/03/19 11:00:57;;;;;;;14.10;8.50;;;26.40;99.90;;;;;;5095221;28;20024;-78
2023/03/19 11:03:46;;;;;;;17.70;8.55;;;26.70;99.90;;;;;;5094795;28;20432;-79
2023/03/19 11:06:17;;;;;;;14.10;7.45;;;26.60;99.90;;;;;;5085435;28;20055;-78
2023/03/19 11:08:59;;;;;;;15.15;7.53;;;26.80;99.90;;;;;;5094780;28;20086;-78
2023/03/19 11:11:41;;;;;;;13.15;7.00;;;26.40;99.90;;;;;;5095060;28;20059;-78
2023/03/19 11:14:21;;;;;;;12.15;6.25;;;26.10;99.90;;;;;;5094697;28;20036;-78
2023/03/19 11:16:57;;;;;;;8.75;5.75;;;26.20;99.90;;;;;;5094762;28;20035;-78
2023/03/19 11:19:29;;;;;;;12.90;6.20;;;26.10;99.90;;;;;;5094626;28;20031;-80
2023/03/19 11:22:08;;;;;;;11.05;5.80;;;26.10;99.90;;;;;;5094701;28;20046;-79
2023/03/19 11:24:39;;;;;;;10.23;6.70;;;26.50;99.90;;;;;;5094739;28;20439;-79
2023/03/19 11:27:07;;;;;;;10.60;6.75;;;26.60;99.90;;;;;;5094759;28;20036;-79
2023/03/19 11:29:39;;;;;;;13.63;7.47;;;27.10;99.90;;;;;;5094708;28;20028;-79
2023/03/19 11:32:44;;;;;;;8.38;5.35;;;27.10;99.90;;;;;;5094593;28;20028;-79
2023/03/19 11:35:18;;;;;;;13.73;6.85;;;27.30;99.90;;;;;;5082017;28;20044;-79
2023/03/19 11:38:02;;;;;;;10.18;6.35;;;27.10;99.90;;;;;;5073978;28;20082;-80
2023/03/19 11:40:44;;;;;;;10.68;5.78;;;27.10;99.90;;;;;;5074336;28;20103;-79
2023/03/19 11:43:22;;;;;;;10.93;6.57;;;27.10;99.90;;;;;;5074166;28;20396;-79
2023/03/19 11:46:22;;;;;;;10.95;6.50;;;27.00;99.90;;;;;;5074181;28;20025;-80
2023/03/19 11:49:26;;;;;;;15.30;6.72;;;27.40;99.90;;;;;;5074247;28;20051;-79
2023/03/19 11:52:15;;;;;;;9.57;5.63;;;27.60;99.90;;;;;;5074217;28;20768;-79
2023/03/19 11:54:50;;;;;;;9.05;5.68;;;27.80;99.90;;;;;;5074029;28;20044;-79
2023/03/19 11:57:47;;;;;;;8.88;5.97;;;27.30;99.90;;;;;;5074155;28;20029;-79
2023/03/19 12:00:25;;;;;;;10.38;6.00;;;26.60;99.90;;;;;;5056124;28;20115;-79
2023/03/19 12:03:04;;;;;;;10.18;6.05;;;26.30;99.90;;;;;;5073963;28;20040;-79
2023/03/19 12:05:38;;;;;;;17.30;7.25;;;26.70;99.90;;;;;;5074125;28;20140;-79
2023/03/19 12:08:25;;;;;;;8.65;5.00;;;27.00;99.90;;;;;;5074070;28;20024;-79
2023/03/19 12:11:03;;;;;;;5.75;4.00;;;27.10;99.90;;;;;;5073965;28;20040;-79
2023/03/19 12:13:47;;;;;;;5.65;3.78;;;27.00;99.90;;;;;;5073918;28;20028;-79
2023/03/19 12:16:37;;;;;;;7.07;4.45;;;27.30;99.90;;;;;;5073923;28;20087;-79
2023/03/19 12:19:18;;;;;;;9.27;4.95;;;27.80;99.90;;;;;;5074002;28;20028;-79
2023/03/19 12:21:50;;;;;;;9.60;5.10;;;27.90;99.90;;;;;;5073998;28;20025;-79
2023/03/19 12:24:31;;;;;;;7.72;5.20;;;28.20;99.90;;;;;;5074109;28;20025;-79
2023/03/19 12:27:12;;;;;;;8.25;5.30;;;27.80;99.90;;;;;;5073971;28;20438;-79
2023/03/19 12:29:46;;;;;;;;;;;27.70;99.90;;;;;;5074502;28;20036;-79
2023/03/19 12:32:20;;;;;;;8.65;5.90;;;27.80;99.90;;;;;;5073750;28;19912;-80
2023/03/19 12:34:52;;;;;;;8.40;5.68;;;27.80;99.90;;;;;;5082472;28;20045;-79
2023/03/19 12:37:42;;;;;;;9.57;5.50;;;26.60;99.90;;;;;;5094074;28;20530;-79
2023/03/19 12:40:18;;;;;;;;;;;26.60;99.90;;;;;;5094696;28;20105;-80
2023/03/19 12:42:44;;;;;;;9.52;6.55;;;27.40;99.90;;;;;;5093920;28;20395;-80
2023/03/19 12:45:41;;;;;;;12.23;7.78;;;27.80;99.90;;;;;;5093957;28;20453;-79
2023/03/19 12:48:29;;;;;;;11.25;6.30;;;27.60;99.90;;;;;;5094070;28;20113;-79
2023/03/19 12:51:04;;;;;;;14.88;6.47;;;27.50;99.90;;;;;;5096498;28;20051;-80
2023/03/19 12:53:55;;;;;;;10.10;7.07;;;27.40;99.90;;;;;;5097351;28;20032;-80